Izmit, Turkey
Current Conditions -  °F | °C
As of 2:13 PM on Friday 31 Oct 2014 (Local Time) from LTBQ Reporting Station
Rain Showers Rain Showers  
Wind Chill: 54°   Ceiling: 1700
Heat Index: 54°   Visibility: 2.6mi
Dew Point: 54°   Wind: 5mph
Humidity: 100%   Direction: 270°W
Pressure: 30.06"   Gusts: NA
Location:  40.77°N, 29.93°E
Report Text: LTBQ 311113Z 27004KT 230V300 4200 -SHRA BR SCT006 BKN017 OVC07012/12 Q1018 TEMPO 2200 SHRA BR SCT006 BKN015 BKN070 RMK RWY0931006KT 280V340
Loading
Personal Weather Stations






























Interactive Weather Map
Tropical Storm Tracking
New forecast layout! Learn more

10-Day Weather Forecast

Advertisements
Track Severe Weather on mobile